createdAt,value
2023-04-18T00:01:11.443Z,66.99
2023-04-18T00:03:39.556Z,67.28
2023-04-18T00:06:07.846Z,68.56
2023-04-18T00:08:36.470Z,68.44
2023-04-18T00:11:04.280Z,67.60
2023-04-18T00:13:33.684Z,67.77
2023-04-18T00:16:01.781Z,67.72
2023-04-18T00:18:29.437Z,67.78
2023-04-18T00:20:57.894Z,67.79
2023-04-18T00:23:37.151Z,67.53
2023-04-18T00:26:04.801Z,67.46
2023-04-18T00:28:34.036Z,67.73
2023-04-18T00:31:01.793Z,67.56
2023-04-18T00:33:29.487Z,67.88
2023-04-18T00:35:57.148Z,68.25
2023-04-18T00:38:24.765Z,67.58
2023-04-18T00:40:52.363Z,68.44
2023-04-18T00:43:26.813Z,68.84
2023-04-18T00:45:59.423Z,69.27
2023-04-18T00:48:27.401Z,69.25
2023-04-18T00:50:55.512Z,69.33
2023-04-18T00:53:23.216Z,70.23
2023-04-18T00:55:51.174Z,70.35
2023-04-18T00:58:20.944Z,70.55
2023-04-18T01:00:49.212Z,70.62
2023-04-18T01:03:19.182Z,71.33
2023-04-18T01:05:48.446Z,72.36
2023-04-18T01:08:18.110Z,72.38
2023-04-18T01:10:47.982Z,73.39
2023-04-18T01:13:17.408Z,73.83
2023-04-18T01:15:46.751Z,73.64
2023-04-18T01:18:17.032Z,74.06
2023-04-18T01:20:48.299Z,74.08
2023-04-18T01:23:16.632Z,74.37
2023-04-18T01:25:46.419Z,74.47
2023-04-18T01:28:16.801Z,74.11
2023-04-18T01:30:44.439Z,75.19
2023-04-18T01:33:12.312Z,76.15
2023-04-18T01:35:39.955Z,76.92
2023-04-18T01:38:07.837Z,76.38
2023-04-18T01:40:35.738Z,77.53
2023-04-18T01:43:06.036Z,77.74
2023-04-18T01:45:33.629Z,77.38
2023-04-18T01:48:01.376Z,78.36
2023-04-18T01:50:29.072Z,78.30
2023-04-18T01:52:56.669Z,78.85
2023-04-18T01:55:24.475Z,79.74
2023-04-18T01:57:52.673Z,79.69
2023-04-18T02:00:22.537Z,79.53
2023-04-18T02:02:50.999Z,79.67
2023-04-18T02:05:19.067Z,80.55
2023-04-18T02:07:47.628Z,81.95
2023-04-18T02:10:15.534Z,81.47
2023-04-18T02:12:43.108Z,82.19
2023-04-18T02:15:11.734Z,82.20
2023-04-18T02:17:42.064Z,82.38
2023-04-18T02:20:13.191Z,82.51
2023-04-18T02:22:40.751Z,83.02
2023-04-18T02:25:08.963Z,83.88
2023-04-18T02:27:36.613Z,84.01
2023-04-18T02:30:05.464Z,84.66
2023-04-18T02:32:33.123Z,84.31
2023-04-18T02:35:02.171Z,85.01
2023-04-18T02:37:29.805Z,84.74
2023-04-18T02:39:58.626Z,84.93
2023-04-18T02:42:27.326Z,84.52
2023-04-18T02:44:55.024Z,84.50
2023-04-18T02:47:22.675Z,84.88
2023-04-18T02:49:50.937Z,85.19
2023-04-18T02:52:22.814Z,86.18
2023-04-18T02:54:50.387Z,86.98
2023-04-18T02:57:18.352Z,86.86
2023-04-18T02:59:46.062Z,87.73
2023-04-18T03:02:13.774Z,86.98
2023-04-18T03:04:41.356Z,87.79
2023-04-18T03:07:08.970Z,88.23
2023-04-18T03:09:42.057Z,87.88
2023-04-18T03:12:10.121Z,88.25
2023-04-18T03:14:47.753Z,89.42
2023-04-18T03:17:15.807Z,88.62
2023-04-18T03:22:26.281Z,89.65
2023-04-18T03:24:55.336Z,89.33
2023-04-18T03:27:23.041Z,89.22
2023-04-18T03:29:51.000Z,89.90
2023-04-18T03:32:21.485Z,90.28
2023-04-18T03:34:49.775Z,90.07
2023-04-18T03:37:17.473Z,90.23
2023-04-18T03:39:45.067Z,90.48
2023-04-18T03:42:13.974Z,91.59
2023-04-18T03:44:41.593Z,91.42
2023-04-18T03:47:09.349Z,91.66
2023-04-18T03:49:37.088Z,91.49
2023-04-18T03:52:04.776Z,92.08
2023-04-18T03:54:32.666Z,92.12
2023-04-18T03:57:05.356Z,91.76
2023-04-18T03:59:34.416Z,93.24
2023-04-18T04:02:02.113Z,93.78
2023-04-18T04:04:31.433Z,93.42
2023-04-18T04:06:59.475Z,93.30
2023-04-18T04:09:27.143Z,95.29
2023-04-18T04:11:54.820Z,94.53
2023-04-18T04:14:22.850Z,94.52
2023-04-18T04:16:54.529Z,94.31
2023-04-18T04:19:22.102Z,94.28
2023-04-18T04:21:49.750Z,94.46
2023-04-18T04:24:17.423Z,94.51
2023-04-18T04:26:45.015Z,94.88
2023-04-18T04:29:13.777Z,95.10
2023-04-18T04:31:41.393Z,94.31
2023-04-18T04:34:13.645Z,95.29
2023-04-18T04:36:43.098Z,94.56
2023-04-18T04:39:11.321Z,94.16
2023-04-18T04:41:40.290Z,93.51
2023-04-18T04:44:10.395Z,93.68
2023-04-18T04:46:39.453Z,93.01
2023-04-18T04:49:10.299Z,94.28
2023-04-18T04:51:40.060Z,94.38
2023-04-18T04:54:10.375Z,92.09
2023-04-18T04:56:39.751Z,91.54
2023-04-18T04:59:07.759Z,90.80
2023-04-18T05:01:35.429Z,90.71
2023-04-18T05:04:03.546Z,89.70
2023-04-18T05:06:33.985Z,89.11
2023-04-18T05:09:05.240Z,89.28
2023-04-18T05:11:33.131Z,88.43
2023-04-18T05:14:00.790Z,86.78
2023-04-18T05:16:28.658Z,87.36
2023-04-18T05:18:56.578Z,87.20
2023-04-18T05:21:26.152Z,86.85
2023-04-18T05:23:54.051Z,87.25
2023-04-18T05:26:23.077Z,87.01
2023-04-18T05:28:50.692Z,87.09
2023-04-18T05:31:18.667Z,86.72
2023-04-18T05:33:46.273Z,85.77
2023-04-18T05:36:13.860Z,86.04
2023-04-18T05:38:41.547Z,85.75
2023-04-18T05:41:09.131Z,84.52
2023-04-18T05:43:38.056Z,83.38
2023-04-18T05:46:06.259Z,83.46
2023-04-18T05:48:34.050Z,82.84
2023-04-18T05:51:01.971Z,82.60
2023-04-18T05:53:29.683Z,81.75
2023-04-18T05:55:59.011Z,81.92
2023-04-18T05:58:28.681Z,81.75
2023-04-18T06:00:57.821Z,81.50
2023-04-18T06:03:25.835Z,81.28
2023-04-18T06:05:53.886Z,82.04
2023-04-18T06:08:21.518Z,82.78
2023-04-18T06:10:49.127Z,82.57
2023-04-18T06:13:16.916Z,80.45
2023-04-18T06:15:44.736Z,80.12
2023-04-18T06:18:13.849Z,80.49
2023-04-18T06:20:42.090Z,80.93
2023-04-18T06:23:09.728Z,81.39
2023-04-18T06:25:37.599Z,81.21
2023-04-18T06:28:05.604Z,82.00
2023-04-18T06:30:35.679Z,82.35
2023-04-18T06:33:03.346Z,82.03
2023-04-18T06:35:35.751Z,82.21
2023-04-18T06:38:03.331Z,81.44
2023-04-18T06:40:31.032Z,81.82
2023-04-18T06:42:58.899Z,81.46
2023-04-18T06:45:26.673Z,81.69
2023-04-18T06:47:54.446Z,81.52
2023-04-18T06:50:22.510Z,81.17
2023-04-18T06:52:51.774Z,80.47
2023-04-18T06:55:19.616Z,80.45
2023-04-18T06:57:47.224Z,81.11
2023-04-18T07:00:16.056Z,81.65
2023-04-18T07:02:44.108Z,81.79
2023-04-18T07:05:12.100Z,80.54
2023-04-18T07:07:40.188Z,79.83
2023-04-18T07:10:11.445Z,80.29
2023-04-18T07:12:42.176Z,79.91
2023-04-18T07:15:11.299Z,80.62
2023-04-18T07:17:39.039Z,78.17
2023-04-18T07:20:08.298Z,77.73
2023-04-18T07:22:35.884Z,75.83
2023-04-18T07:25:07.559Z,75.11
2023-04-18T07:27:46.608Z,74.60
2023-04-18T07:30:16.029Z,73.93
2023-04-18T07:32:43.882Z,75.32
2023-04-18T07:35:11.758Z,74.82
2023-04-18T07:37:39.528Z,75.83
2023-04-18T07:40:08.493Z,75.89
2023-04-18T07:42:36.079Z,75.88
2023-04-18T07:45:05.874Z,74.57
2023-04-18T07:47:37.615Z,74.33
2023-04-18T07:50:06.155Z,74.40
2023-04-18T07:52:37.298Z,73.56
2023-04-18T07:55:06.684Z,72.71
2023-04-18T07:57:34.929Z,71.54
2023-04-18T08:00:04.886Z,70.43
2023-04-18T08:02:34.488Z,67.35
2023-04-18T08:05:02.460Z,66.37
2023-04-18T08:07:30.456Z,66.31
2023-04-18T08:09:58.035Z,67.17
2023-04-18T08:12:25.629Z,66.27
2023-04-18T08:14:53.169Z,66.19
2023-04-18T08:17:20.910Z,66.42
2023-04-18T08:19:50.636Z,66.81
2023-04-18T08:22:18.249Z,66.51
2023-04-18T08:24:57.468Z,66.75
2023-04-18T08:27:31.906Z,67.33
2023-04-18T08:29:59.788Z,67.64
2023-04-18T08:32:27.450Z,67.00
2023-04-18T08:34:56.955Z,66.46
2023-04-18T08:37:28.077Z,68.00
2023-04-18T08:39:56.882Z,65.28
2023-04-18T08:42:24.815Z,63.70
2023-04-18T08:45:02.053Z,63.83
2023-04-18T08:47:30.389Z,62.37
2023-04-18T08:49:59.771Z,62.17
2023-04-18T08:52:31.211Z,64.91
2023-04-18T08:55:04.583Z,65.88
2023-04-18T08:57:33.364Z,64.05
2023-04-18T09:00:01.912Z,66.07
2023-04-18T09:02:39.239Z,62.84
2023-04-18T09:05:15.010Z,60.38
2023-04-18T09:07:43.931Z,58.51
2023-04-18T09:10:14.724Z,57.49
2023-04-18T09:12:50.327Z,56.51
2023-04-18T09:15:22.437Z,60.47
2023-04-18T09:17:53.364Z,62.88
2023-04-18T09:20:36.656Z,61.35
2023-04-18T09:23:11.041Z,61.92
2023-04-18T09:25:47.041Z,62.74
2023-04-18T09:28:26.987Z,60.75
2023-04-18T09:30:58.733Z,61.01
2023-04-18T09:33:29.115Z,60.15
2023-04-18T09:36:16.499Z,60.77
2023-04-18T09:38:44.457Z,59.12
2023-04-18T09:41:19.174Z,58.29
2023-04-18T09:43:49.301Z,57.53
2023-04-18T09:46:21.679Z,57.69
2023-04-18T09:48:49.408Z,58.55
2023-04-18T09:51:19.397Z,56.46
2023-04-18T09:53:47.595Z,56.30
2023-04-18T09:56:20.962Z,56.17
2023-04-18T09:58:56.018Z,57.69
2023-04-18T10:01:28.824Z,58.88
2023-04-18T10:03:58.126Z,57.49
2023-04-18T10:06:30.818Z,58.02
2023-04-18T10:09:00.400Z,57.51
2023-04-18T10:11:28.281Z,57.02
2023-04-18T10:13:59.410Z,57.92
2023-04-18T10:16:27.678Z,57.68
2023-04-18T10:18:56.569Z,56.56
2023-04-18T10:21:24.362Z,56.54
2023-04-18T10:23:53.507Z,56.30
2023-04-18T10:26:21.750Z,56.87
2023-04-18T10:28:55.119Z,56.25
2023-04-18T10:31:24.290Z,57.94
2023-04-18T10:36:28.558Z,56.70
2023-04-18T10:39:03.278Z,55.83
2023-04-18T10:41:32.122Z,54.30
2023-04-18T10:44:19.545Z,55.60
2023-04-18T10:47:33.565Z,54.43
2023-04-18T10:50:06.829Z,56.92
2023-04-18T10:52:35.298Z,54.35
2023-04-18T10:55:10.465Z,54.42
2023-04-18T10:57:42.172Z,54.70
2023-04-18T11:00:12.521Z,54.69
2023-04-18T11:02:41.296Z,54.50
2023-04-18T11:05:11.047Z,54.86
2023-04-18T11:07:40.942Z,54.56
2023-04-18T11:10:11.309Z,54.95
2023-04-18T11:12:40.961Z,55.65
2023-04-18T11:15:13.018Z,56.05
2023-04-18T11:17:41.724Z,56.91
2023-04-18T11:20:14.954Z,57.19
2023-04-18T11:22:48.278Z,58.46
2023-04-18T11:25:21.051Z,58.33
2023-04-18T11:27:54.314Z,57.06
2023-04-18T11:30:23.186Z,55.88
2023-04-18T11:32:51.549Z,56.42
2023-04-18T11:35:19.951Z,56.39
2023-04-18T11:37:50.252Z,56.78
2023-04-18T11:40:20.670Z,57.02
2023-04-18T11:42:48.490Z,57.90
2023-04-18T11:45:16.814Z,58.19
2023-04-18T11:47:46.916Z,58.14
2023-04-18T11:50:15.350Z,57.34
2023-04-18T11:52:43.494Z,57.75
2023-04-18T11:55:13.515Z,57.24
2023-04-18T11:57:42.861Z,55.93
2023-04-18T12:00:12.325Z,53.69
2023-04-18T12:02:44.646Z,55.30
2023-04-18T12:05:15.177Z,54.58
2023-04-18T12:07:46.283Z,55.85
2023-04-18T12:10:25.991Z,57.33
2023-04-18T12:12:59.676Z,56.02
2023-04-18T12:15:37.755Z,55.81
2023-04-18T12:18:11.660Z,56.09
2023-04-18T12:20:51.691Z,55.78
2023-04-18T12:23:36.344Z,56.18
2023-04-18T12:26:05.812Z,56.07
2023-04-18T12:28:40.093Z,54.65
2023-04-18T12:31:08.443Z,53.31
2023-04-18T12:33:37.013Z,53.67
2023-04-18T12:36:09.420Z,53.14
2023-04-18T12:38:38.288Z,54.23
2023-04-18T12:41:06.239Z,53.67
2023-04-18T12:43:37.268Z,53.92
2023-04-18T12:46:06.522Z,53.73
2023-04-18T12:48:34.323Z,54.05
2023-04-18T12:51:02.446Z,54.00
2023-04-18T12:53:29.968Z,53.90
2023-04-18T12:55:57.824Z,53.28
2023-04-18T12:58:26.022Z,53.43
2023-04-18T13:00:55.015Z,52.91
2023-04-18T13:03:27.187Z,52.90
2023-04-18T13:05:57.023Z,53.90
2023-04-18T13:08:30.049Z,54.31
2023-04-18T13:11:04.474Z,54.96
2023-04-18T13:13:33.850Z,55.36
2023-04-18T13:16:06.166Z,55.33
2023-04-18T13:18:37.181Z,54.96
2023-04-18T13:21:07.608Z,55.02
2023-04-18T13:23:36.786Z,55.16
2023-04-18T13:26:09.031Z,55.14
2023-04-18T13:28:36.949Z,56.11
2023-04-18T13:31:04.931Z,55.18
2023-04-18T13:33:32.678Z,55.19
2023-04-18T13:36:02.962Z,56.12
2023-04-18T13:38:33.700Z,54.82
2023-04-18T13:41:11.393Z,54.24
2023-04-18T13:43:40.902Z,55.27
2023-04-18T13:46:19.485Z,54.79
2023-04-18T13:48:47.232Z,54.07
2023-04-18T13:51:16.232Z,54.13
2023-04-18T13:53:43.879Z,53.99
2023-04-18T13:56:12.465Z,53.73
2023-04-18T13:58:40.123Z,52.83
2023-04-18T14:01:07.894Z,52.74
2023-04-18T14:03:40.628Z,52.68
2023-04-18T14:06:09.931Z,52.77
2023-04-18T14:08:39.973Z,53.21
2023-04-18T14:11:07.822Z,52.42
2023-04-18T14:13:35.824Z,54.20
2023-04-18T14:16:06.609Z,53.94
2023-04-18T14:18:35.557Z,54.35
2023-04-18T14:21:03.708Z,54.42
2023-04-18T14:23:31.590Z,55.10
2023-04-18T14:26:01.301Z,55.76
2023-04-18T14:28:29.261Z,55.79
2023-04-18T14:30:59.938Z,56.46
2023-04-18T14:33:53.829Z,57.92
2023-04-18T14:36:23.785Z,57.06
2023-04-18T14:38:51.417Z,57.85
2023-04-18T14:41:21.793Z,57.96
2023-04-18T14:43:50.057Z,57.35
2023-04-18T14:46:18.254Z,58.59
2023-04-18T14:48:48.731Z,58.30
2023-04-18T14:51:18.034Z,57.89
2023-04-18T14:53:47.278Z,56.67
2023-04-18T14:56:16.018Z,56.04
2023-04-18T14:58:45.127Z,56.11
2023-04-18T15:01:15.149Z,54.91
2023-04-18T15:03:44.119Z,55.40
2023-04-18T15:06:12.440Z,56.31
2023-04-18T15:08:40.824Z,56.65
2023-04-18T15:11:09.688Z,56.32
2023-04-18T15:13:37.874Z,56.87
2023-04-18T15:16:09.509Z,57.04
2023-04-18T15:18:39.820Z,57.70
2023-04-18T15:21:07.520Z,58.01
2023-04-18T15:23:36.869Z,58.36
2023-04-18T15:26:07.682Z,57.97
2023-04-18T15:28:37.516Z,58.97
2023-04-18T15:31:09.529Z,58.35
2023-04-18T15:33:42.546Z,58.33
2023-04-18T15:36:10.966Z,58.27
2023-04-18T15:41:26.232Z,58.36
2023-04-18T15:43:54.162Z,58.41
2023-04-18T15:46:23.302Z,57.98
2023-04-18T15:48:51.079Z,58.70
2023-04-18T15:51:18.957Z,59.32
2023-04-18T15:53:47.128Z,59.73
2023-04-18T15:56:15.013Z,59.63
2023-04-18T15:58:43.045Z,60.59
2023-04-18T16:01:13.083Z,60.17
2023-04-18T16:03:46.224Z,60.21
2023-04-18T16:06:17.665Z,60.26
2023-04-18T16:08:46.529Z,60.08
2023-04-18T16:11:31.971Z,59.25
2023-04-18T16:13:59.685Z,59.96
2023-04-18T16:16:29.434Z,59.64
2023-04-18T16:19:26.606Z,59.96
2023-04-18T16:21:59.675Z,60.21
2023-04-18T16:25:09.533Z,60.78
2023-04-18T16:27:37.307Z,61.49
2023-04-18T16:30:06.381Z,61.23
2023-04-18T16:32:37.362Z,61.92
2023-04-18T16:37:53.625Z,62.02
2023-04-18T16:40:30.707Z,62.94
2023-04-18T16:43:01.485Z,62.48
2023-04-18T16:45:37.967Z,63.44
2023-04-18T16:48:09.634Z,63.03
2023-04-18T16:50:39.857Z,63.51
2023-04-18T16:53:08.825Z,62.59
2023-04-18T16:55:36.541Z,63.25
2023-04-18T16:58:11.962Z,62.66
2023-04-18T17:00:48.521Z,62.63
2023-04-18T17:03:17.976Z,63.08
2023-04-18T17:05:49.652Z,63.63
2023-04-18T17:11:39.682Z,63.62
2023-04-18T17:14:24.812Z,63.33
2023-04-18T17:16:57.260Z,63.62
2023-04-18T17:19:28.454Z,64.17
2023-04-18T17:22:10.339Z,64.43
2023-04-18T17:25:11.691Z,64.81
2023-04-18T17:27:43.508Z,64.86
2023-04-18T17:30:40.549Z,64.76
2023-04-18T17:33:14.090Z,65.46
2023-04-18T17:36:14.946Z,65.04
2023-04-18T17:39:01.239Z,65.43
2023-04-18T17:41:33.018Z,66.61
2023-04-18T17:44:05.746Z,66.13
2023-04-18T17:46:51.863Z,65.95
2023-04-18T17:52:50.861Z,67.37
2023-04-18T17:55:22.606Z,67.80
2023-04-18T17:57:51.141Z,68.04
2023-04-18T18:00:43.006Z,68.12
2023-04-18T18:03:23.641Z,68.42
2023-04-18T18:06:09.489Z,69.23
2023-04-18T18:11:43.287Z,69.93
2023-04-18T18:14:31.714Z,68.81
2023-04-18T18:17:04.612Z,69.73
2023-04-18T18:19:45.345Z,70.04
2023-04-18T18:23:11.960Z,70.02
2023-04-18T18:25:48.966Z,69.92
2023-04-18T18:28:55.177Z,70.63
2023-04-18T18:37:52.899Z,71.62
2023-04-18T18:40:24.069Z,71.79
2023-04-18T18:42:55.098Z,71.52
2023-04-18T18:45:25.858Z,71.63
2023-04-18T18:47:54.315Z,71.47
2023-04-18T18:50:39.997Z,72.61
2023-04-18T18:53:09.965Z,73.20
2023-04-18T18:55:40.912Z,73.05
2023-04-18T18:58:13.093Z,72.92
2023-04-18T19:00:40.999Z,72.49
2023-04-18T19:05:56.477Z,73.05
2023-04-18T19:11:29.116Z,73.15
2023-04-18T19:13:58.146Z,73.04
2023-04-18T19:16:28.800Z,73.77
2023-04-18T19:18:56.561Z,73.72
2023-04-18T19:24:22.185Z,73.37
2023-04-18T19:29:37.108Z,73.75
2023-04-18T19:32:09.062Z,74.16
2023-04-18T19:34:37.085Z,74.76
2023-04-18T19:37:09.345Z,75.56
2023-04-18T19:39:36.990Z,74.97
2023-04-18T19:42:06.569Z,74.50
2023-04-18T19:44:34.128Z,74.16
2023-04-18T19:47:05.975Z,74.30
2023-04-18T19:49:41.581Z,74.93
2023-04-18T19:52:11.131Z,74.68
2023-04-18T19:54:38.736Z,74.49
2023-04-18T19:57:06.353Z,75.36
2023-04-18T19:59:33.975Z,76.19
2023-04-18T20:02:05.053Z,76.12
2023-04-18T20:04:34.292Z,76.41
2023-04-18T20:07:04.362Z,76.62
2023-04-18T20:09:45.684Z,76.70
2023-04-18T20:12:17.335Z,76.52
2023-04-18T20:14:45.481Z,76.02
2023-04-18T20:17:31.496Z,76.46
2023-04-18T20:20:11.526Z,76.93
2023-04-18T20:22:41.814Z,76.33
2023-04-18T20:25:11.084Z,75.86
2023-04-18T20:27:38.863Z,76.45
2023-04-18T20:30:13.959Z,76.27
2023-04-18T20:32:41.631Z,77.08
2023-04-18T20:35:09.759Z,77.22
2023-04-18T20:37:38.985Z,78.23
2023-04-18T20:40:10.888Z,78.02
2023-04-18T20:42:40.320Z,76.69
2023-04-18T20:45:11.495Z,77.53
2023-04-18T20:47:41.105Z,77.25
2023-04-18T20:50:18.540Z,78.00
2023-04-18T20:52:46.549Z,78.38
2023-04-18T20:55:16.688Z,78.83
2023-04-18T20:57:45.746Z,78.17
2023-04-18T21:00:15.906Z,77.85
2023-04-18T21:02:44.828Z,77.62
2023-04-18T21:05:12.574Z,76.96
2023-04-18T21:07:40.228Z,77.10
2023-04-18T21:10:09.971Z,78.09
2023-04-18T21:12:38.251Z,77.96
2023-04-18T21:17:43.302Z,77.52
2023-04-18T21:20:14.439Z,77.95
2023-04-18T21:22:42.337Z,77.90
2023-04-18T21:25:14.171Z,78.40
2023-04-18T21:27:42.000Z,78.81
2023-04-18T21:30:10.317Z,79.31
2023-04-18T21:32:41.386Z,79.74
2023-04-18T21:35:16.098Z,80.08
2023-04-18T21:37:45.280Z,80.62
2023-04-18T21:40:17.968Z,81.03
2023-04-18T21:42:52.095Z,81.62
2023-04-18T21:45:21.391Z,81.92
2023-04-18T21:47:52.946Z,81.99
2023-04-18T21:50:26.844Z,82.47
2023-04-18T21:52:55.820Z,82.81
2023-04-18T21:55:27.103Z,82.58
2023-04-18T21:58:00.170Z,82.48
2023-04-18T22:00:36.532Z,82.43
2023-04-18T22:03:11.493Z,82.47
2023-04-18T22:05:42.424Z,81.73
2023-04-18T22:08:15.095Z,82.34
2023-04-18T22:10:49.946Z,82.15
2023-04-18T22:13:19.321Z,82.33
2023-04-18T22:15:53.661Z,82.34
2023-04-18T22:18:24.495Z,82.65
2023-04-18T22:29:11.472Z,82.17
2023-04-18T22:31:52.188Z,81.99
2023-04-18T22:34:36.841Z,82.09
2023-04-18T22:37:09.150Z,82.39
2023-04-18T22:45:18.108Z,82.87
2023-04-18T22:48:17.581Z,82.73
2023-04-18T22:51:01.959Z,83.01
2023-04-18T22:59:27.108Z,82.16
2023-04-18T23:02:09.280Z,82.00
2023-04-18T23:07:43.290Z,81.67
2023-04-18T23:10:15.972Z,81.97
2023-04-18T23:12:45.855Z,81.71
2023-04-18T23:18:03.512Z,81.81
2023-04-18T23:26:05.634Z,81.12
2023-04-18T23:28:34.144Z,81.07
2023-04-18T23:31:02.868Z,81.16
2023-04-18T23:33:33.753Z,80.90
2023-04-18T23:36:01.600Z,81.47
2023-04-18T23:38:29.301Z,81.95
2023-04-18T23:40:57.461Z,82.18
2023-04-18T23:43:25.529Z,82.63
2023-04-18T23:45:56.331Z,82.08
2023-04-18T23:48:26.432Z,82.12
2023-04-18T23:50:56.840Z,82.79
2023-04-18T23:53:24.856Z,82.59
2023-04-18T23:55:54.853Z,83.56
2023-04-18T23:58:22.554Z,82.93
